Stations météo

Publicité
St-Raphael, France (7680): Température de l'air & dewpoint: 19.11.2020 23:00:00 - 25.11.2020 23:00:00 (CET)St-Raphael, France (7680): Vitesse du vent & gusts: 19.11.2020 23:00:00 - 25.11.2020 23:00:00 (CET)St-Raphael, France (7680): Direction du vent: 19.11.2020 23:00:00 - 25.11.2020 23:00:00 (CET)St-Raphael, France (7680): Quantités de précipitations: 19.11.2020 23:00:00 - 25.11.2020 23:00:00 (CET)
Date & Time tt [°C] td [°C] ff [km/h] ff [knt] fx [km/h] fx [knt] dd rr [mm]
25.11.2020 23:00:00 7,6 5,6 5 3 9 5 NW 0,0
25.11.2020 22:00:00 - - - - - - - -
25.11.2020 21:00:00 7,8 6,3 5 3 10 5 N 0,0
25.11.2020 20:00:00 8,1 6,1 4 2 10 5 N 0,0
25.11.2020 19:00:00 9,6 6,9 4 2 8 4 N 0,0
25.11.2020 18:00:00 11,2 8,1 4 2 8 5 N 0,0
25.11.2020 17:00:00 12,9 7,8 3 1 18 10 ENE 0,0
25.11.2020 16:00:00 14,4 7,7 8 4 21 12 E 0,0
25.11.2020 15:00:00 15,3 7,8 10 5 23 12 ENE 0,0
25.11.2020 14:00:00 15,6 7,1 10 5 22 12 ENE 0,0
25.11.2020 13:00:00 16,0 7,5 9 5 22 12 E 0,0
25.11.2020 12:00:00 12,7 6,7 8 5 16 9 W 0,0
25.11.2020 11:00:00 10,2 4,6 8 4 18 10 WNW 0,0
25.11.2020 10:00:00 6,7 3,5 10 5 20 11 NW 0,0
25.11.2020 09:00:00 3,7 1,9 8 5 21 11 NW 0,0
25.11.2020 08:00:00 2,9 1,4 8 4 17 9 NW 0,0
25.11.2020 07:00:00 3,6 1,6 9 5 20 11 WNW 0,0
25.11.2020 06:00:00 3,5 1,9 8 5 19 10 NW 0,0
25.11.2020 05:00:00 3,7 1,9 9 5 19 10 NW 0,0
25.11.2020 04:00:00 4,0 2,0 10 5 21 11 NW 0,0
25.11.2020 03:00:00 4,8 2,3 8 4 18 10 NW 0,0
25.11.2020 02:00:00 5,1 2,6 9 5 19 10 NW 0,0
25.11.2020 01:00:00 5,8 2,8 10 5 23 12 NW 0,0
25.11.2020 00:00:00 6,1 2,9 11 6 23 12 NW 0,0
24.11.2020 23:00:00 5,9 2,9 8 4 18 10 NW 0,0
24.11.2020 22:00:00 5,7 3,7 6 4 13 7 NW 0,0
24.11.2020 21:00:00 6,3 4,0 6 3 11 6 NW 0,0
24.11.2020 20:00:00 6,5 4,3 5 3 8 4 NW 0,0
24.11.2020 19:00:00 8,3 4,5 5 3 11 6 NW 0,0
24.11.2020 18:00:00 8,3 4,7 4 2 10 5 WSW 0,0
24.11.2020 17:00:00 10,8 4,7 4 2 11 6 WSW 0,0
24.11.2020 16:00:00 13,6 5,7 6 3 16 9 S 0,0
24.11.2020 15:00:00 15,7 5,3 9 5 19 11 S 0,0
24.11.2020 14:00:00 16,4 5,4 6 3 17 9 S 0,0
24.11.2020 13:00:00 16,6 6,4 4 2 12 6 S 0,0
24.11.2020 12:00:00 14,5 8,7 3 1 11 6 SSW 0,0
24.11.2020 11:00:00 11,5 7,4 6 4 13 7 WNW 0,0
24.11.2020 10:00:00 8,9 6,3 5 3 16 9 NNW 0,0
24.11.2020 09:00:00 5,4 4,4 6 3 13 7 WNW 0,0
24.11.2020 08:00:00 5,0 4,0 6 4 14 7 NW 0,0
24.11.2020 07:00:00 5,2 4,3 6 3 14 8 NW 0,0
24.11.2020 06:00:00 5,5 4,5 6 4 13 7 WNW 0,0
24.11.2020 05:00:00 6,2 5,0 5 3 16 8 WNW 0,0
24.11.2020 04:00:00 6,8 5,6 6 3 13 7 NW 0,0
24.11.2020 03:00:00 7,6 6,1 6 4 16 8 NW 0,0
24.11.2020 02:00:00 8,3 6,6 6 4 15 8 NW 0,0
24.11.2020 01:00:00 8,0 6,5 6 3 13 7 NW 0,0
24.11.2020 00:00:00 8,4 6,5 6 4 12 6 NW 0,0
23.11.2020 23:00:00 8,2 6,2 4 2 13 7 WNW 0,0
23.11.2020 22:00:00 8,7 6,5 4 2 11 6 NW 0,0
23.11.2020 21:00:00 8,5 6,3 4 2 10 5 WNW 0,0
23.11.2020 20:00:00 7,9 6,2 6 3 10 5 NNW 0,0
23.11.2020 19:00:00 8,4 6,5 4 2 8 4 NW 0,0
23.11.2020 18:00:00 10,2 7,1 0 0 7 4 N 0,0
23.11.2020 17:00:00 12,4 7,7 3 2 14 7 S 0,0
23.11.2020 16:00:00 13,9 7,6 6 3 14 8 E 0,0
23.11.2020 15:00:00 15,3 7,1 5 3 14 7 SE 0,0
23.11.2020 14:00:00 15,1 6,4 5 3 16 9 NW 0,0
23.11.2020 13:00:00 13,8 6,6 7 4 19 10 WNW 0,0
23.11.2020 12:00:00 12,4 5,3 8 4 19 11 NW 0,0
23.11.2020 11:00:00 10,3 5,1 8 5 18 10 NW 0,0
23.11.2020 10:00:00 7,5 4,4 9 5 18 10 NW 0,0
23.11.2020 09:00:00 4,5 3,2 6 4 17 9 NW 0,0
23.11.2020 08:00:00 2,9 2,3 6 3 18 10 NW 0,0
23.11.2020 07:00:00 3,4 2,4 7 4 19 10 NW 0,0
23.11.2020 06:00:00 3,7 2,5 5 3 14 8 NW 0,2
23.11.2020 05:00:00 4,3 3,0 6 4 14 7 NW 0,0
23.11.2020 04:00:00 4,9 3,4 5 3 18 10 NNW 0,0
23.11.2020 03:00:00 5,1 3,6 8 5 21 11 NNW 0,0
23.11.2020 02:00:00 5,3 3,8 8 5 19 10 NW 0,0
23.11.2020 01:00:00 5,4 3,9 8 4 17 9 NW 0,0
23.11.2020 00:00:00 5,7 4,0 6 3 15 8 NW 0,0
22.11.2020 23:00:00 5,7 4,2 7 4 15 8 NW 0,0
22.11.2020 22:00:00 5,0 3,3 5 3 15 8 WNW 0,0
22.11.2020 21:00:00 5,9 4,4 5 3 11 6 WNW 0,0
22.11.2020 20:00:00 6,6 4,3 5 3 10 5 WNW 0,0
22.11.2020 19:00:00 8,4 5,0 4 2 9 5 NNW 0,0
22.11.2020 18:00:00 10,7 5,7 3 2 14 7 N 0,0
22.11.2020 17:00:00 12,4 5,8 6 3 14 8 SE 0,0
22.11.2020 16:00:00 13,0 4,2 6 4 13 7 SE 0,0
22.11.2020 15:00:00 14,5 5,3 5 3 11 6 SSE 0,0
22.11.2020 14:00:00 15,1 4,7 6 3 12 7 E 0,0
22.11.2020 13:00:00 14,1 4,1 3 2 13 7 WNW 0,0
22.11.2020 12:00:00 12,5 4,0 4 2 14 7 N 0,0
22.11.2020 11:00:00 10,5 3,5 5 3 16 9 NW 0,0
22.11.2020 10:00:00 7,3 3,0 8 4 19 10 NW 0,0
22.11.2020 09:00:00 4,4 1,8 9 5 20 11 NNW 0,0
22.11.2020 08:00:00 3,5 1,4 8 4 20 11 NNW 0,0
22.11.2020 07:00:00 3,5 1,5 6 4 21 11 N 0,0
22.11.2020 06:00:00 3,8 2,0 6 4 18 10 NNW 0,0
22.11.2020 05:00:00 4,3 2,6 10 5 19 10 NW 0,0
22.11.2020 04:00:00 4,4 2,7 8 4 20 11 NW 0,0
22.11.2020 03:00:00 4,9 2,4 8 5 21 12 N 0,0
22.11.2020 02:00:00 5,2 2,9 11 6 25 14 NW 0,0
22.11.2020 01:00:00 4,8 2,8 9 5 19 11 NW 0,0
22.11.2020 00:00:00 4,9 3,1 7 4 16 9 NW 0,0
21.11.2020 23:00:00 5,7 3,0 5 3 20 11 WNW 0,0
21.11.2020 22:00:00 7,3 3,9 6 3 16 8 NNW 0,0
21.11.2020 21:00:00 6,5 3,8 6 3 13 7 NW 0,0
21.11.2020 20:00:00 7,5 4,1 5 3 16 8 NW 0,0
21.11.2020 19:00:00 8,6 4,8 5 3 13 7 NW 0,0
21.11.2020 18:00:00 10,2 4,1 4 2 9 5 NW 0,0
21.11.2020 17:00:00 13,5 3,0 6 3 21 12 E 0,0
21.11.2020 16:00:00 14,5 3,6 7 4 15 8 SE 0,0
21.11.2020 15:00:00 15,7 3,8 5 3 11 6 ESE 0,0
21.11.2020 14:00:00 15,9 3,3 3 2 12 6 WNW 0,0
21.11.2020 13:00:00 15,4 3,8 5 3 16 9 WNW 0,0
21.11.2020 12:00:00 13,3 3,4 10 5 22 12 WNW 0,0
21.11.2020 11:00:00 11,5 2,2 9 5 28 15 NNW 0,0
21.11.2020 10:00:00 8,1 1,2 11 6 26 14 NW 0,0
21.11.2020 09:00:00 5,9 0,0 11 6 26 14 NW 0,0
21.11.2020 08:00:00 4,7 -0,5 12 6 26 14 NNW 0,0
21.11.2020 07:00:00 4,0 -0,4 9 5 24 13 NNW 0,0
21.11.2020 06:00:00 4,4 -0,2 10 5 23 13 NW 0,0
21.11.2020 05:00:00 5,2 -0,2 9 5 30 16 NNW 0,0
21.11.2020 04:00:00 5,3 -0,1 10 6 31 17 NNW 0,0
21.11.2020 03:00:00 5,9 0,0 13 7 30 16 NNW 0,0
21.11.2020 02:00:00 6,2 0,3 13 7 25 13 NNW 0,0
21.11.2020 01:00:00 6,4 0,5 10 5 23 13 NNW 0,0
21.11.2020 00:00:00 7,0 0,6 8 5 21 11 NNW 0,0
20.11.2020 23:00:00 8,0 0,9 10 5 23 12 N 0,0
20.11.2020 22:00:00 8,7 1,4 11 6 27 15 NNW 0,0
20.11.2020 21:00:00 9,5 1,4 11 6 24 13 NNW 0,0
20.11.2020 20:00:00 10,0 1,6 10 5 22 12 NNW 0,0
20.11.2020 19:00:00 8,6 2,6 2 1 11 6 SSW 0,0
20.11.2020 18:00:00 10,6 2,4 5 3 8 4 NW 0,0
20.11.2020 17:00:00 13,7 1,0 2 1 13 7 SW 0,0
20.11.2020 16:00:00 16,5 1,7 7 4 14 8 SW 0,0
20.11.2020 15:00:00 17,8 -0,5 8 4 17 9 WNW 0,0
20.11.2020 14:00:00 17,7 1,2 10 5 18 10 W 0,0
20.11.2020 13:00:00 18,6 0,7 5 3 18 10 S 0,0
20.11.2020 12:00:00 16,7 0,3 8 4 20 11 WNW 0,0
20.11.2020 11:00:00 15,9 -0,4 7 4 22 12 NW 0,0
20.11.2020 10:00:00 13,4 -0,3 8 4 16 9 NW 0,0
20.11.2020 09:00:00 9,9 -0,9 4 2 18 10 N 0,0
20.11.2020 08:00:00 8,2 -2,5 7 4 28 15 N 0,0
20.11.2020 07:00:00 10,3 -3,4 10 5 26 14 N 0,0
20.11.2020 06:00:00 11,1 -3,1 9 5 22 12 WNW 0,0
20.11.2020 05:00:00 11,2 -3,3 13 7 31 17 WNW 0,0
20.11.2020 04:00:00 11,8 -3,2 20 11 40 22 WNW 0,0
20.11.2020 03:00:00 11,7 -2,5 20 11 44 24 W 0,0
20.11.2020 02:00:00 12,5 -3,0 22 12 53 29 W 0,0
20.11.2020 01:00:00 12,3 -2,4 33 18 66 36 W 0,0
20.11.2020 00:00:00 12,7 -1,6 36 20 80 43 W 0,0
19.11.2020 23:00:00 13,1 -0,9 37 20 76 41 W 0,0

tt = Température de l'air
td = dewpoint
ff = Vitesse du vent
fx = gusts
dd = Direction du vent
rr = Quantités de précipitations

stations d'obs. à proximité